sensor_id;sensor_type;location;lat;lon;timestamp;pressure;altitude;pressure_sealevel;temperature;humidity
55044;BME280;54902;50.420;18.854;2023-04-06T00:00:17;101774.04;;;-1.84;56.51
55044;BME280;54902;50.420;18.854;2023-04-06T00:00:49;101770.46;;;-1.83;56.51
55044;BME280;54902;50.420;18.854;2023-04-06T00:01:20;101769.59;;;-1.84;56.53
55044;BME280;54902;50.420;18.854;2023-04-06T00:01:51;101774.95;;;-1.84;56.52
55044;BME280;54902;50.420;18.854;2023-04-06T00:02:22;101774.01;;;-1.83;56.54
55044;BME280;54902;50.420;18.854;2023-04-06T00:02:52;101777.59;;;-1.82;56.50
55044;BME280;54902;50.420;18.854;2023-04-06T00:03:24;101775.79;;;-1.82;56.50
55044;BME280;54902;50.420;18.854;2023-04-06T00:03:55;101775.82;;;-1.83;56.48
55044;BME280;54902;50.420;18.854;2023-04-06T00:04:26;101768.69;;;-1.84;56.44
55044;BME280;54902;50.420;18.854;2023-04-06T00:04:57;101774.01;;;-1.83;56.45
55044;BME280;54902;50.420;18.854;2023-04-06T00:05:28;101773.14;;;-1.83;56.42
55044;BME280;54902;50.420;18.854;2023-04-06T00:06:01;101777.59;;;-1.82;56.44
55044;BME280;54902;50.420;18.854;2023-04-06T00:06:32;101777.59;;;-1.82;56.43
55044;BME280;54902;50.420;18.854;2023-04-06T00:07:04;101771.33;;;-1.83;56.42
55044;BME280;54902;50.420;18.854;2023-04-06T00:07:35;101770.46;;;-1.83;56.42
55044;BME280;54902;50.420;18.854;2023-04-06T00:08:06;101765.11;;;-1.83;56.38
55044;BME280;54902;50.420;18.854;2023-04-06T00:08:37;101774.91;;;-1.82;56.40
55044;BME280;54902;50.420;18.854;2023-04-06T00:09:07;101771.33;;;-1.83;56.42
55044;BME280;54902;50.420;18.854;2023-04-06T00:09:38;101778.50;;;-1.83;56.38
55044;BME280;54902;50.420;18.854;2023-04-06T00:10:10;101775.82;;;-1.83;56.37
55044;BME280;54902;50.420;18.854;2023-04-06T00:10:41;101775.82;;;-1.83;56.35
55044;BME280;54902;50.420;18.854;2023-04-06T00:11:12;101769.59;;;-1.84;56.36
55044;BME280;54902;50.420;18.854;2023-04-06T00:11:43;101769.59;;;-1.84;56.37
55044;BME280;54902;50.420;18.854;2023-04-06T00:12:14;101771.36;;;-1.84;56.37
55044;BME280;54902;50.420;18.854;2023-04-06T00:12:45;101774.04;;;-1.84;56.38
55044;BME280;54902;50.420;18.854;2023-04-06T00:13:16;101779.40;;;-1.84;56.38
55044;BME280;54902;50.420;18.854;2023-04-06T00:13:47;101771.36;;;-1.84;56.39
55044;BME280;54902;50.420;18.854;2023-04-06T00:14:18;101770.49;;;-1.85;56.41
55044;BME280;54902;50.420;18.854;2023-04-06T00:14:49;101768.69;;;-1.84;56.41
55044;BME280;54902;50.420;18.854;2023-04-06T00:15:20;101774.04;;;-1.84;56.38
55044;BME280;54902;50.420;18.854;2023-04-06T00:15:51;101775.85;;;-1.85;56.38
55044;BME280;54902;50.420;18.854;2023-04-06T00:16:22;101770.49;;;-1.85;56.38
55044;BME280;54902;50.420;18.854;2023-04-06T00:16:53;101774.95;;;-1.85;56.39
55044;BME280;54902;50.420;18.854;2023-04-06T00:17:24;101768.69;;;-1.84;56.41
55044;BME280;54902;50.420;18.854;2023-04-06T00:17:56;101766.91;;;-1.85;56.39
55044;BME280;54902;50.420;18.854;2023-04-06T00:18:27;101774.04;;;-1.84;56.44
55044;BME280;54902;50.420;18.854;2023-04-06T00:18:58;101771.36;;;-1.84;56.46
55044;BME280;54902;50.420;18.854;2023-04-06T00:19:29;101770.49;;;-1.85;56.42
55044;BME280;54902;50.420;18.854;2023-04-06T00:20:00;101772.27;;;-1.85;56.41
55044;BME280;54902;50.420;18.854;2023-04-06T00:20:31;101772.27;;;-1.85;56.40
55044;BME280;54902;50.420;18.854;2023-04-06T00:21:03;101769.59;;;-1.85;56.39
55044;BME280;54902;50.420;18.854;2023-04-06T00:21:34;101768.69;;;-1.84;56.42
55044;BME280;54902;50.420;18.854;2023-04-06T00:22:04;101768.69;;;-1.84;56.45
55044;BME280;54902;50.420;18.854;2023-04-06T00:22:35;101772.27;;;-1.85;56.45
55044;BME280;54902;50.420;18.854;2023-04-06T00:23:06;101767.81;;;-1.85;56.49
55044;BME280;54902;50.420;18.854;2023-04-06T00:23:37;101761.56;;;-1.85;56.47
55044;BME280;54902;50.420;18.854;2023-04-06T00:24:08;101758.89;;;-1.85;56.44
55044;BME280;54902;50.420;18.854;2023-04-06T00:24:39;101763.38;;;-1.86;56.45
55044;BME280;54902;50.420;18.854;2023-04-06T00:25:10;101764.24;;;-1.85;56.45
55044;BME280;54902;50.420;18.854;2023-04-06T00:25:42;101763.34;;;-1.84;56.49
55044;BME280;54902;50.420;18.854;2023-04-06T00:26:12;101766.91;;;-1.85;56.47
55044;BME280;54902;50.420;18.854;2023-04-06T00:26:43;101769.59;;;-1.85;56.47
55044;BME280;54902;50.420;18.854;2023-04-06T00:27:15;101766.91;;;-1.85;56.47
55044;BME280;54902;50.420;18.854;2023-04-06T00:27:46;101772.27;;;-1.85;56.46
55044;BME280;54902;50.420;18.854;2023-04-06T00:28:17;101768.72;;;-1.86;56.50
55044;BME280;54902;50.420;18.854;2023-04-06T00:28:50;101766.05;;;-1.86;56.50
55044;BME280;54902;50.420;18.854;2023-04-06T00:29:23;101766.05;;;-1.86;56.50
55044;BME280;54902;50.420;18.854;2023-04-06T00:29:53;101767.85;;;-1.86;56.55
55044;BME280;54902;50.420;18.854;2023-04-06T00:30:25;101761.56;;;-1.85;56.56
55044;BME280;54902;50.420;18.854;2023-04-06T00:30:55;101762.50;;;-1.86;56.54
55044;BME280;54902;50.420;18.854;2023-04-06T00:31:26;101759.83;;;-1.86;56.52
55044;BME280;54902;50.420;18.854;2023-04-06T00:31:57;101759.83;;;-1.86;56.53
55044;BME280;54902;50.420;18.854;2023-04-06T00:32:28;101763.41;;;-1.87;56.51
55044;BME280;54902;50.420;18.854;2023-04-06T00:32:59;101761.59;;;-1.87;56.52
55044;BME280;54902;50.420;18.854;2023-04-06T00:33:32;101760.73;;;-1.87;56.50
55044;BME280;54902;50.420;18.854;2023-04-06T00:34:03;101761.63;;;-1.88;56.52
55044;BME280;54902;50.420;18.854;2023-04-06T00:34:34;101762.54;;;-1.88;56.51
55044;BME280;54902;50.420;18.854;2023-04-06T00:35:05;101762.54;;;-1.88;56.53
55044;BME280;54902;50.420;18.854;2023-04-06T00:35:36;101769.66;;;-1.88;56.54
55044;BME280;54902;50.420;18.854;2023-04-06T00:36:09;101761.63;;;-1.88;56.53
55044;BME280;54902;50.420;18.854;2023-04-06T00:36:40;101757.19;;;-1.88;56.53
55044;BME280;54902;50.420;18.854;2023-04-06T00:37:11;101758.05;;;-1.87;56.53
55044;BME280;54902;50.420;18.854;2023-04-06T00:37:42;101755.41;;;-1.89;56.56
55044;BME280;54902;50.420;18.854;2023-04-06T00:38:14;101751.83;;;-1.89;56.55
55044;BME280;54902;50.420;18.854;2023-04-06T00:38:46;101766.98;;;-1.88;56.55
55044;BME280;54902;50.420;18.854;2023-04-06T00:39:17;101761.63;;;-1.88;56.57
55044;BME280;54902;50.420;18.854;2023-04-06T00:39:47;101762.52;;;-1.89;56.57
55044;BME280;54902;50.420;18.854;2023-04-06T00:40:19;101762.52;;;-1.89;56.58
55044;BME280;54902;50.420;18.854;2023-04-06T00:40:50;101754.51;;;-1.89;56.58
55044;BME280;54902;50.420;18.854;2023-04-06T00:41:21;101738.63;;;-2.00;56.59
55044;BME280;54902;50.420;18.854;2023-04-06T00:41:52;101752.73;;;-1.89;56.61
55044;BME280;54902;50.420;18.854;2023-04-06T00:42:24;101762.52;;;-1.89;56.61
55044;BME280;54902;50.420;18.854;2023-04-06T00:42:58;101758.95;;;-1.88;56.61
55044;BME280;54902;50.420;18.854;2023-04-06T00:43:31;101761.63;;;-1.88;56.62
55044;BME280;54902;50.420;18.854;2023-04-06T00:44:02;101750.09;;;-1.92;56.65
55044;BME280;54902;50.420;18.854;2023-04-06T00:44:33;101759.85;;;-1.89;56.59
55044;BME280;54902;50.420;18.854;2023-04-06T00:45:04;101756.27;;;-1.88;56.59
55044;BME280;54902;50.420;18.854;2023-04-06T00:45:35;101756.31;;;-1.90;56.61
55044;BME280;54902;50.420;18.854;2023-04-06T00:46:06;101759.85;;;-1.89;56.61
55044;BME280;54902;50.420;18.854;2023-04-06T00:46:37;101760.79;;;-1.90;56.62
55044;BME280;54902;50.420;18.854;2023-04-06T00:47:08;101759.85;;;-1.89;56.64
55044;BME280;54902;50.420;18.854;2023-04-06T00:47:39;101750.05;;;-1.89;56.66
55044;BME280;54902;50.420;18.854;2023-04-06T00:48:10;101754.51;;;-1.89;56.65
55044;BME280;54902;50.420;18.854;2023-04-06T00:48:41;101759.85;;;-1.89;56.66
55044;BME280;54902;50.420;18.854;2023-04-06T00:49:12;101755.44;;;-1.90;56.67
55044;BME280;54902;50.420;18.854;2023-04-06T00:49:43;101757.18;;;-1.89;56.65
55044;BME280;54902;50.420;18.854;2023-04-06T00:50:14;101757.18;;;-1.89;56.66
55044;BME280;54902;50.420;18.854;2023-04-06T00:50:46;101758.11;;;-1.90;56.67
55044;BME280;54902;50.420;18.854;2023-04-06T00:51:17;101765.20;;;-1.89;56.64
55044;BME280;54902;50.420;18.854;2023-04-06T00:51:48;101758.11;;;-1.90;56.61
55044;BME280;54902;50.420;18.854;2023-04-06T00:52:19;101759.85;;;-1.89;56.63
55044;BME280;54902;50.420;18.854;2023-04-06T00:52:50;101760.76;;;-1.89;56.67
55044;BME280;54902;50.420;18.854;2023-04-06T00:53:21;101760.76;;;-1.89;56.71
55044;BME280;54902;50.420;18.854;2023-04-06T00:53:52;101750.05;;;-1.89;56.71
55044;BME280;54902;50.420;18.854;2023-04-06T00:54:23;101759.86;;;-1.88;56.67
55044;BME280;54902;50.420;18.854;2023-04-06T00:54:54;101749.15;;;-1.89;56.63
55044;BME280;54902;50.420;18.854;2023-04-06T00:55:28;101750.96;;;-1.90;56.65
55044;BME280;54902;50.420;18.854;2023-04-06T00:55:59;101754.51;;;-1.88;56.64
55044;BME280;54902;50.420;18.854;2023-04-06T00:56:30;101753.60;;;-1.88;56.70
55044;BME280;54902;50.420;18.854;2023-04-06T00:57:01;101753.60;;;-1.88;56.71
55044;BME280;54902;50.420;18.854;2023-04-06T00:57:32;101750.92;;;-1.88;56.71
55044;BME280;54902;50.420;18.854;2023-04-06T00:58:03;101751.83;;;-1.88;56.70
55044;BME280;54902;50.420;18.854;2023-04-06T00:58:35;101758.05;;;-1.87;56.65
55044;BME280;54902;50.420;18.854;2023-04-06T00:59:10;101741.98;;;-1.87;56.71
55044;BME280;54902;50.420;18.854;2023-04-06T00:59:42;101746.47;;;-1.88;56.73
55044;BME280;54902;50.420;18.854;2023-04-06T01:00:14;101750.92;;;-1.88;56.81
55044;BME280;54902;50.420;18.854;2023-04-06T01:00:45;101741.98;;;-1.87;56.80
55044;BME280;54902;50.420;18.854;2023-04-06T01:01:16;101752.70;;;-1.87;56.80
55044;BME280;54902;50.420;18.854;2023-04-06T01:01:48;101752.70;;;-1.87;56.81
55044;BME280;54902;50.420;18.854;2023-04-06T01:02:19;101750.02;;;-1.87;56.83
55044;BME280;54902;50.420;18.854;2023-04-06T01:02:50;101757.19;;;-1.88;56.82
55044;BME280;54902;50.420;18.854;2023-04-06T01:03:21;101758.05;;;-1.87;56.79
55044;BME280;54902;50.420;18.854;2023-04-06T01:03:53;101750.89;;;-1.87;56.83
55044;BME280;54902;50.420;18.854;2023-04-06T01:04:26;101752.70;;;-1.87;56.81
55044;BME280;54902;50.420;18.854;2023-04-06T01:04:57;101753.56;;;-1.87;56.82
55044;BME280;54902;50.420;18.854;2023-04-06T01:05:28;101749.12;;;-1.86;56.82
55044;BME280;54902;50.420;18.854;2023-04-06T01:05:59;101749.15;;;-1.88;56.82
55044;BME280;54902;50.420;18.854;2023-04-06T01:06:30;101750.02;;;-1.87;56.81
55044;BME280;54902;50.420;18.854;2023-04-06T01:07:01;101756.23;;;-1.87;56.84
55044;BME280;54902;50.420;18.854;2023-04-06T01:07:32;101758.91;;;-1.87;56.84
55044;BME280;54902;50.420;18.854;2023-04-06T01:08:03;101754.48;;;-1.86;56.85
55044;BME280;54902;50.420;18.854;2023-04-06T01:08:34;101758.05;;;-1.87;56.81
55044;BME280;54902;50.420;18.854;2023-04-06T01:09:06;101753.56;;;-1.87;56.85
55044;BME280;54902;50.420;18.854;2023-04-06T01:09:37;101765.18;;;-1.86;56.85
55044;BME280;54902;50.420;18.854;2023-04-06T01:10:11;101753.53;;;-1.85;56.84
55044;BME280;54902;50.420;18.854;2023-04-06T01:10:47;101749.98;;;-1.86;56.84
55044;BME280;54902;50.420;18.854;2023-04-06T01:11:18;101754.48;;;-1.86;56.83
55044;BME280;54902;50.420;18.854;2023-04-06T01:11:49;101754.48;;;-1.86;56.83
55044;BME280;54902;50.420;18.854;2023-04-06T01:12:20;101743.77;;;-1.86;56.81
55044;BME280;54902;50.420;18.854;2023-04-06T01:12:51;101749.98;;;-1.86;56.85
55044;BME280;54902;50.420;18.854;2023-04-06T01:13:22;101750.86;;;-1.85;56.86
55044;BME280;54902;50.420;18.854;2023-04-06T01:13:53;101750.86;;;-1.85;56.88
55044;BME280;54902;50.420;18.854;2023-04-06T01:14:25;101745.50;;;-1.85;56.90
55044;BME280;54902;50.420;18.854;2023-04-06T01:14:56;101746.41;;;-1.85;56.92
55044;BME280;54902;50.420;18.854;2023-04-06T01:15:28;101749.96;;;-1.84;56.94
55044;BME280;54902;50.420;18.854;2023-04-06T01:16:00;101747.28;;;-1.84;56.93
55044;BME280;54902;50.420;18.854;2023-04-06T01:16:31;101753.54;;;-1.84;56.93
55044;BME280;54902;50.420;18.854;2023-04-06T01:17:02;101754.41;;;-1.83;56.97
55044;BME280;54902;50.420;18.854;2023-04-06T01:17:33;101753.50;;;-1.82;56.97
55044;BME280;54902;50.420;18.854;2023-04-06T01:18:04;101747.25;;;-1.83;56.97
55044;BME280;54902;50.420;18.854;2023-04-06T01:18:39;101747.25;;;-1.83;56.96
55044;BME280;54902;50.420;18.854;2023-04-06T01:19:11;101745.47;;;-1.82;56.96
55044;BME280;54902;50.420;18.854;2023-04-06T01:19:42;101751.70;;;-1.82;57.01
55044;BME280;54902;50.420;18.854;2023-04-06T01:20:15;101747.20;;;-1.81;57.03
55044;BME280;54902;50.420;18.854;2023-04-06T01:20:46;101749.88;;;-1.81;57.03
55044;BME280;54902;50.420;18.854;2023-04-06T01:21:17;101741.86;;;-1.81;57.06
55044;BME280;54902;50.420;18.854;2023-04-06T01:21:48;101748.98;;;-1.80;57.08
55044;BME280;54902;50.420;18.854;2023-04-06T01:22:24;101741.86;;;-1.80;57.08
55044;BME280;54902;50.420;18.854;2023-04-06T01:22:55;101736.56;;;-1.84;57.17
55044;BME280;54902;50.420;18.854;2023-04-06T01:23:26;101750.77;;;-1.79;57.14
55044;BME280;54902;50.420;18.854;2023-04-06T01:23:57;101748.08;;;-1.79;57.13
55044;BME280;54902;50.420;18.854;2023-04-06T01:24:28;101744.50;;;-1.78;57.12
55044;BME280;54902;50.420;18.854;2023-04-06T01:24:59;101750.77;;;-1.79;57.14
55044;BME280;54902;50.420;18.854;2023-04-06T01:25:30;101749.89;;;-1.80;57.16
55044;BME280;54902;50.420;18.854;2023-04-06T01:26:01;101740.92;;;-1.79;57.14
55044;BME280;54902;50.420;18.854;2023-04-06T01:26:32;101748.95;;;-1.77;57.17
55044;BME280;54902;50.420;18.854;2023-04-06T01:27:04;101745.37;;;-1.78;57.15
55044;BME280;54902;50.420;18.854;2023-04-06T01:27:35;101746.27;;;-1.79;57.07
55044;BME280;54902;50.420;18.854;2023-04-06T01:28:06;101746.27;;;-1.77;57.07
55044;BME280;54902;50.420;18.854;2023-04-06T01:28:37;101750.69;;;-1.76;57.09
55044;BME280;54902;50.420;18.854;2023-04-06T01:29:08;101747.17;;;-1.78;57.09
55044;BME280;54902;50.420;18.854;2023-04-06T01:29:39;101739.98;;;-1.76;57.08
55044;BME280;54902;50.420;18.854;2023-04-06T01:30:13;101747.14;;;-1.77;57.07
55044;BME280;54902;50.420;18.854;2023-04-06T01:30:44;101752.47;;;-1.75;57.09
55044;BME280;54902;50.420;18.854;2023-04-06T01:31:16;101746.23;;;-1.76;57.21
55044;BME280;54902;50.420;18.854;2023-04-06T01:31:46;101750.65;;;-1.75;57.23
55044;BME280;54902;50.420;18.854;2023-04-06T01:32:17;101742.62;;;-1.75;57.28
55044;BME280;54902;50.420;18.854;2023-04-06T01:32:48;101746.20;;;-1.74;57.30
55044;BME280;54902;50.420;18.854;2023-04-06T01:33:20;101743.52;;;-1.74;57.29
55044;BME280;54902;50.420;18.854;2023-04-06T01:33:50;101741.76;;;-1.75;57.27
55044;BME280;54902;50.420;18.854;2023-04-06T01:34:21;101739.95;;;-1.75;57.30
55044;BME280;54902;50.420;18.854;2023-04-06T01:34:52;101738.18;;;-1.74;57.29
55044;BME280;54902;50.420;18.854;2023-04-06T01:35:26;101747.03;;;-1.73;57.27
55044;BME280;54902;50.420;18.854;2023-04-06T01:35:57;101747.03;;;-1.73;57.31
55044;BME280;54902;50.420;18.854;2023-04-06T01:36:28;101747.03;;;-1.73;57.29
55044;BME280;54902;50.420;18.854;2023-04-06T01:37:00;101741.68;;;-1.73;57.33
55044;BME280;54902;50.420;18.854;2023-04-06T01:37:31;101738.10;;;-1.72;57.33
55044;BME280;54902;50.420;18.854;2023-04-06T01:38:03;101738.97;;;-1.71;57.33
55044;BME280;54902;50.420;18.854;2023-04-06T01:38:34;101749.68;;;-1.71;57.39
55044;BME280;54902;50.420;18.854;2023-04-06T01:39:05;101736.33;;;-1.73;57.38
55044;BME280;54902;50.420;18.854;2023-04-06T01:39:36;101744.32;;;-1.71;57.37
55044;BME280;54902;50.420;18.854;2023-04-06T01:40:08;101739.88;;;-1.71;57.36
55044;BME280;54902;50.420;18.854;2023-04-06T01:40:39;101738.97;;;-1.71;57.38
55044;BME280;54902;50.420;18.854;2023-04-06T01:41:11;101735.39;;;-1.70;57.41
55044;BME280;54902;50.420;18.854;2023-04-06T01:41:42;101738.07;;;-1.70;57.49
55044;BME280;54902;50.420;18.854;2023-04-06T01:42:13;101739.88;;;-1.71;57.45
55044;BME280;54902;50.420;18.854;2023-04-06T01:42:44;101737.16;;;-1.69;57.44
55044;BME280;54902;50.420;18.854;2023-04-06T01:43:15;101736.29;;;-1.70;57.51
55044;BME280;54902;50.420;18.854;2023-04-06T01:43:47;101747.00;;;-1.70;57.43
55044;BME280;54902;50.420;18.854;2023-04-06T01:44:19;101736.29;;;-1.70;57.47
55044;BME280;54902;50.420;18.854;2023-04-06T01:44:50;101735.39;;;-1.70;57.48
55044;BME280;54902;50.420;18.854;2023-04-06T01:45:21;101747.00;;;-1.70;57.47
55044;BME280;54902;50.420;18.854;2023-04-06T01:45:52;101748.74;;;-1.69;57.45
55044;BME280;54902;50.420;18.854;2023-04-06T01:46:23;101743.39;;;-1.69;57.45
55044;BME280;54902;50.420;18.854;2023-04-06T01:46:54;101741.64;;;-1.70;57.44
55044;BME280;54902;50.420;18.854;2023-04-06T01:47:25;101741.64;;;-1.70;57.41
55044;BME280;54902;50.420;18.854;2023-04-06T01:47:56;101743.39;;;-1.69;57.42
55044;BME280;54902;50.420;18.854;2023-04-06T01:48:27;101743.39;;;-1.69;57.43
55044;BME280;54902;50.420;18.854;2023-04-06T01:48:58;101741.62;;;-1.68;57.42
55044;BME280;54902;50.420;18.854;2023-04-06T01:49:29;101738.03;;;-1.69;57.45
55044;BME280;54902;50.420;18.854;2023-04-06T01:50:00;101747.84;;;-1.68;57.43
55044;BME280;54902;50.420;18.854;2023-04-06T01:50:35;101740.71;;;-1.69;57.45
55044;BME280;54902;50.420;18.854;2023-04-06T01:51:06;101737.13;;;-1.68;57.45
55044;BME280;54902;50.420;18.854;2023-04-06T01:51:37;101745.16;;;-1.68;57.46
55044;BME280;54902;50.420;18.854;2023-04-06T01:52:08;101738.03;;;-1.69;57.47
55044;BME280;54902;50.420;18.854;2023-04-06T01:52:39;101742.48;;;-1.68;57.52
55044;BME280;54902;50.420;18.854;2023-04-06T01:53:11;101738.00;;;-1.67;57.53
55044;BME280;54902;50.420;18.854;2023-04-06T01:53:42;101736.26;;;-1.68;57.52
55044;BME280;54902;50.420;18.854;2023-04-06T01:54:13;101740.68;;;-1.67;57.53
55044;BME280;54902;50.420;18.854;2023-04-06T01:54:44;101733.55;;;-1.67;57.58
55044;BME280;54902;50.420;18.854;2023-04-06T01:55:15;101739.80;;;-1.68;57.61
55044;BME280;54902;50.420;18.854;2023-04-06T01:55:47;101740.68;;;-1.67;57.65
55044;BME280;54902;50.420;18.854;2023-04-06T01:56:18;101740.68;;;-1.67;57.69
55044;BME280;54902;50.420;18.854;2023-04-06T01:56:49;101738.91;;;-1.67;57.68
55044;BME280;54902;50.420;18.854;2023-04-06T01:57:22;101736.23;;;-1.67;57.67
55044;BME280;54902;50.420;18.854;2023-04-06T01:57:53;101741.59;;;-1.67;57.65
55044;BME280;54902;50.420;18.854;2023-04-06T01:58:24;101739.77;;;-1.66;57.41
55044;BME280;54902;50.420;18.854;2023-04-06T01:58:56;101741.59;;;-1.67;57.58
55044;BME280;54902;50.420;18.854;2023-04-06T01:59:27;101738.88;;;-1.65;57.60
55044;BME280;54902;50.420;18.854;2023-04-06T01:59:58;101733.55;;;-1.67;57.65
55044;BME280;54902;50.420;18.854;2023-04-06T02:00:29;101738.00;;;-1.66;57.64
55044;BME280;54902;50.420;18.854;2023-04-06T02:01:01;101743.36;;;-1.66;57.66
55044;BME280;54902;50.420;18.854;2023-04-06T02:01:32;101742.42;;;-1.65;57.70
55044;BME280;54902;50.420;18.854;2023-04-06T02:02:03;101738.88;;;-1.65;57.68
55044;BME280;54902;50.420;18.854;2023-04-06T02:02:33;101747.78;;;-1.65;57.62
55044;BME280;54902;50.420;18.854;2023-04-06T02:03:05;101736.20;;;-1.65;57.63
55044;BME280;54902;50.420;18.854;2023-04-06T02:03:36;101740.68;;;-1.66;57.62
55044;BME280;54902;50.420;18.854;2023-04-06T02:04:07;101737.09;;;-1.66;57.64
55044;BME280;54902;50.420;18.854;2023-04-06T02:04:38;101732.64;;;-1.66;57.68
55044;BME280;54902;50.420;18.854;2023-04-06T02:05:09;101738.00;;;-1.66;57.71
55044;BME280;54902;50.420;18.854;2023-04-06T02:05:40;101743.36;;;-1.66;57.75
55044;BME280;54902;50.420;18.854;2023-04-06T02:06:11;101733.55;;;-1.67;57.76
55044;BME280;54902;50.420;18.854;2023-04-06T02:06:42;101738.91;;;-1.67;57.73
55044;BME280;54902;50.420;18.854;2023-04-06T02:07:13;101740.68;;;-1.67;57.69
55044;BME280;54902;50.420;18.854;2023-04-06T02:07:44;101735.32;;;-1.67;57.63
55044;BME280;54902;50.420;18.854;2023-04-06T02:08:15;101732.64;;;-1.67;57.63
55044;BME280;54902;50.420;18.854;2023-04-06T02:08:46;101744.30;;;-1.68;57.60
55044;BME280;54902;50.420;18.854;2023-04-06T02:09:17;101740.68;;;-1.67;57.59
55044;BME280;54902;50.420;18.854;2023-04-06T02:09:48;101739.80;;;-1.68;57.60
55044;BME280;54902;50.420;18.854;2023-04-06T02:10:19;101738.94;;;-1.68;57.59
55044;BME280;54902;50.420;18.854;2023-04-06T02:10:50;101738.03;;;-1.69;57.58
55044;BME280;54902;50.420;18.854;2023-04-06T02:11:22;101738.03;;;-1.69;57.54
55044;BME280;54902;50.420;18.854;2023-04-06T02:11:53;101746.97;;;-1.68;57.55
55044;BME280;54902;50.420;18.854;2023-04-06T02:12:24;101740.71;;;-1.69;57.56
55044;BME280;54902;50.420;18.854;2023-04-06T02:12:55;101740.71;;;-1.69;57.57
55044;BME280;54902;50.420;18.854;2023-04-06T02:13:26;101743.39;;;-1.69;57.56
55044;BME280;54902;50.420;18.854;2023-04-06T02:13:57;101737.16;;;-1.69;57.60
55044;BME280;54902;50.420;18.854;2023-04-06T02:14:31;101732.68;;;-1.69;57.58
55044;BME280;54902;50.420;18.854;2023-04-06T02:15:02;101738.03;;;-1.69;57.58
55044;BME280;54902;50.420;18.854;2023-04-06T02:15:33;101742.52;;;-1.69;57.59
55044;BME280;54902;50.420;18.854;2023-04-06T02:16:05;101736.29;;;-1.70;57.61
55044;BME280;54902;50.420;18.854;2023-04-06T02:16:36;101738.97;;;-1.70;57.63
55044;BME280;54902;50.420;18.854;2023-04-06T02:17:07;101734.48;;;-1.69;57.62
55044;BME280;54902;50.420;18.854;2023-04-06T02:17:38;101741.64;;;-1.70;57.64
55044;BME280;54902;50.420;18.854;2023-04-06T02:18:09;101738.97;;;-1.70;57.64
55044;BME280;54902;50.420;18.854;2023-04-06T02:18:40;101740.71;;;-1.69;57.65
55044;BME280;54902;50.420;18.854;2023-04-06T02:19:11;101726.49;;;-1.71;57.67
55044;BME280;54902;50.420;18.854;2023-04-06T02:19:42;101738.03;;;-1.69;57.71
55044;BME280;54902;50.420;18.854;2023-04-06T02:20:13;101737.16;;;-1.69;57.71
55044;BME280;54902;50.420;18.854;2023-04-06T02:20:44;101738.03;;;-1.69;57.72
55044;BME280;54902;50.420;18.854;2023-04-06T02:21:16;101738.03;;;-1.69;57.72
55044;BME280;54902;50.420;18.854;2023-04-06T02:21:50;101726.46;;;-1.69;57.74
55044;BME280;54902;50.420;18.854;2023-04-06T02:22:21;101730.93;;;-1.70;57.71
55044;BME280;54902;50.420;18.854;2023-04-06T02:22:52;101732.68;;;-1.69;57.73
55044;BME280;54902;50.420;18.854;2023-04-06T02:23:23;101738.03;;;-1.69;57.74
55044;BME280;54902;50.420;18.854;2023-04-06T02:23:54;101742.48;;;-1.68;57.70
55044;BME280;54902;50.420;18.854;2023-04-06T02:24:26;101736.26;;;-1.68;57.70
55044;BME280;54902;50.420;18.854;2023-04-06T02:24:56;101739.80;;;-1.68;57.71
55044;BME280;54902;50.420;18.854;2023-04-06T02:25:27;101736.26;;;-1.68;57.70
55044;BME280;54902;50.420;18.854;2023-04-06T02:25:58;101734.45;;;-1.68;57.71
55044;BME280;54902;50.420;18.854;2023-04-06T02:26:30;101734.45;;;-1.68;57.69
55044;BME280;54902;50.420;18.854;2023-04-06T02:27:01;101733.58;;;-1.68;57.69
55044;BME280;54902;50.420;18.854;2023-04-06T02:27:32;101727.39;;;-1.72;57.70
55044;BME280;54902;50.420;18.854;2023-04-06T02:28:03;101730.90;;;-1.68;57.69
55044;BME280;54902;50.420;18.854;2023-04-06T02:28:34;101739.80;;;-1.68;57.71
55044;BME280;54902;50.420;18.854;2023-04-06T02:29:05;101731.80;;;-1.69;57.72
55044;BME280;54902;50.420;18.854;2023-04-06T02:29:37;101738.00;;;-1.67;57.73
55044;BME280;54902;50.420;18.854;2023-04-06T02:30:09;101733.58;;;-1.68;57.72
55044;BME280;54902;50.420;18.854;2023-04-06T02:30:40;101730.90;;;-1.68;57.73
55044;BME280;54902;50.420;18.854;2023-04-06T02:31:11;101730.00;;;-1.69;57.72
55044;BME280;54902;50.420;18.854;2023-04-06T02:31:42;101727.32;;;-1.69;57.72
55044;BME280;54902;50.420;18.854;2023-04-06T02:32:13;101731.77;;;-1.68;57.72
55044;BME280;54902;50.420;18.854;2023-04-06T02:32:44;101737.16;;;-1.69;57.70
55044;BME280;54902;50.420;18.854;2023-04-06T02:33:15;101730.93;;;-1.70;57.68
55044;BME280;54902;50.420;18.854;2023-04-06T02:33:46;101735.36;;;-1.69;57.69
55044;BME280;54902;50.420;18.854;2023-04-06T02:34:17;101730.93;;;-1.70;57.70
55044;BME280;54902;50.420;18.854;2023-04-06T02:34:48;101735.39;;;-1.70;57.69
55044;BME280;54902;50.420;18.854;2023-04-06T02:35:19;101735.36;;;-1.69;57.68
55044;BME280;54902;50.420;18.854;2023-04-06T02:35:50;101733.62;;;-1.70;57.69
55044;BME280;54902;50.420;18.854;2023-04-06T02:36:21;101730.03;;;-1.70;57.68
55044;BME280;54902;50.420;18.854;2023-04-06T02:36:52;101736.29;;;-1.71;57.70
55044;BME280;54902;50.420;18.854;2023-04-06T02:37:23;101734.52;;;-1.71;57.71
55044;BME280;54902;50.420;18.854;2023-04-06T02:37:54;101733.62;;;-1.71;57.73
55044;BME280;54902;50.420;18.854;2023-04-06T02:38:25;101727.39;;;-1.72;57.75
55044;BME280;54902;50.420;18.854;2023-04-06T02:38:56;101729.16;;;-1.71;57.80
55044;BME280;54902;50.420;18.854;2023-04-06T02:39:27;101727.39;;;-1.72;57.86
55044;BME280;54902;50.420;18.854;2023-04-06T02:39:58;101730.07;;;-1.72;57.87
55044;BME280;54902;50.420;18.854;2023-04-06T02:40:29;101734.52;;;-1.71;57.88
55044;BME280;54902;50.420;18.854;2023-04-06T02:41:00;101729.16;;;-1.71;57.93
55044;BME280;54902;50.420;18.854;2023-04-06T02:41:31;101728.27;;;-1.71;57.95